• Join FlightAware (Why Join?)
  • Login
  • US Flag 
11:29PM EST


 

Airport Tracker/Info


-or-


 

Live Flight TrackerFlight Track Log ✈ EGF4383 ✈ 04-May-2013 ✈ KCHO - KORD

Flight Track Log - Related Links

Times and Time Zones

All times are in EDT time to prevent confusion due to time zone crossing. See the EGF4383 flight status page for this flight to view local times or setup timezone preferences in your user account.

Time Position Orientation Groundspeed Altitude Reporting Facility
EDT Latitude Longitude Course Direction KTS MPH feet Rate Location/Type
05:03PM 38.1769 -78.4444 294° West 180 207 2,300  Level Washington Center
05:04PM 38.2006 -78.5008 298° West 217 250 5,300 2,520 Climbing Washington Center
05:05PM 38.2623 -78.8121 299° West  Level FlightAware Approximate
05:05PM 38.2258 -78.5731 294° West 235 270 7,500  Level Washington Center
05:06PM 38.3127 -78.9304 298° West  Level FlightAware Approximate
05:06PM 38.2669 -78.6806 296° West 260 299 10,300  Level Washington Center
05:07PM 38.3623 -79.0494 298° West  Level FlightAware Approximate
05:07PM 38.2942 -78.7611 293° West 271 312 12,900  Level Washington Center
05:08PM 38.4083 -79.1706 294° West  Level FlightAware Approximate
05:08PM 38.3311 -78.8606 295° West 291 335 14,500  Level Washington Center
05:10PM 38.4200 -79.1031 295° West 357 411 17,900 1,620 Climbing Washington Center
05:11PM 38.4644 -79.2219 296° West 365 420 19,400 1,560 Climbing Washington Center
05:12PM 38.5064 -79.3486 293° West 376 433 21,100 1,560 Climbing Washington Center
05:13PM 38.5503 -79.4783 293° West 386 444 22,600 1,500 Climbing Washington Center
05:14PM 38.5944 -79.5947 296° West 393 452 24,200 1,500 Climbing Washington Center
05:15PM 38.6400 -79.7275 294° West 404 465 25,600 1,500 Climbing Washington Center
05:16PM 38.7111 -79.8406 309° West 404 465 27,200 1,140 Climbing Washington Center
05:17PM 38.7900 -79.9678 309° West 409 471 28,000 360 Climbing Washington Center
05:18PM 38.8669 -80.0869 310° West 416 479 28,000 360 Level Washington Center
05:19PM 38.9606 -80.2528 306° West 445 512 29,000 840 Climbing Indianapolis Center
05:20PM 38.9778 -80.4069 278° West 436 502 30,200 1,380 Climbing Indianapolis Center
05:21PM 38.9928 -80.5906 276° West 432 497 31,900 1,440 Climbing Indianapolis Center
05:22PM 39.0072 -80.7428 277° West 431 496 33,200 1,260 Climbing Indianapolis Center
05:23PM 39.0453 -80.8881 289° West 436 502 34,600 1,020 Climbing Indianapolis Center
05:25PM 39.1022 -81.0267 298° West 441 507 35,400 600 Climbing Indianapolis Center
05:26PM 39.1625 -81.1694 299° West 453 521 35,900 240 Climbing Indianapolis Center
05:27PM 39.2219 -81.3161 298° West 464 534 36,000  Climbing Indianapolis Center
05:28PM 39.2803 -81.4597 298° West 456 525 36,000  Level Indianapolis Center
05:29PM 39.3383 -81.6028 298° West 453 521 36,000  Level Indianapolis Center
05:30PM 39.4075 -81.7717 298° West 447 514 36,000  Level Indianapolis Center
05:31PM 39.4639 -81.9131 297° West 444 511 36,000  Level Indianapolis Center
05:32PM 39.5217 -82.0550 298° West 446 513 36,000  Level Indianapolis Center
05:33PM 39.5797 -82.2036 297° West 453 521 36,000  Level Indianapolis Center
05:34PM 39.6381 -82.3511 297° West 456 525 36,000  Level Indianapolis Center
05:35PM 39.6972 -82.4986 298° West 458 527 36,000  Level Indianapolis Center
05:36PM 39.7561 -82.6503 297° West 466 536 36,000  Level Indianapolis Center
05:37PM 39.8153 -82.8025 297° West 468 539 36,000  Level Indianapolis Center
05:38PM 39.8744 -82.9547 297° West 469 540 36,000  Level Indianapolis Center
05:39PM 39.9433 -83.1328 297° West 472 543 36,000  Level Indianapolis Center
05:40PM 40.0025 -83.2867 297° West 475 547 36,000  Level Indianapolis Center
05:41PM 40.0611 -83.4400 297° West 477 549 36,000  Level Indianapolis Center
05:42PM 40.1206 -83.5947 297° West 479 551 36,000  Level Indianapolis Center
05:43PM 40.1778 -83.7492 296° West 475 547 36,000  Level Indianapolis Center
05:44PM 40.2367 -83.9064 296° West 477 549 36,000  Level Indianapolis Center
05:45PM 40.2969 -84.0619 297° West 477 549 36,000 -240 Level Indianapolis Center
05:46PM 40.3978 -84.2206 310° West 483 556 35,600 -540 Descending Indianapolis Center
05:47PM 40.4825 -84.3597 309° West 484 557 35,000 -540 Descending Indianapolis Center
05:48PM 40.5661 -84.5006 308° West 485 558 34,500 -480 Descending Indianapolis Center
05:49PM 40.6578 -84.6456 310° West 485 558 34,000 -240 Descending Chicago Center
05:50PM 40.7403 -84.7844 308° West 483 556 34,000  Level Chicago Center
05:51PM 40.8239 -84.9264 308° West 486 559 34,000  Level Chicago Center
05:52PM 40.8917 -85.0786 301° West 482 555 34,000 -540 Level Chicago Center
05:53PM 40.9547 -85.2333 298° West 478 550 33,000 -1,620 Descending Chicago Center
05:54PM 41.0186 -85.3869 299° West 477 549 30,700 -2,400 Descending Chicago Center
05:55PM 41.0942 -85.5706 299° West 473 544 28,200 -2,280 Descending Chicago Center
05:56PM 41.1572 -85.7250 299° West 473 544 26,100 -1,560 Descending Chicago Center
05:57PM 41.2186 -85.8753 299° West 463 533 25,000 -540 Descending Chicago Center
05:58PM 41.2786 -86.0233 298° West 455 524 25,000 -780 Level Chicago Center
05:59PM 41.3214 -86.1833 290° West 457 526 23,500 -1,800 Descending Chicago Center
06:01PM 41.3606 -86.3411 288° West 448 516 21,300 -2,220 Descending Chicago Center
06:02PM 41.3981 -86.4939 288° West 436 502 19,000 -2,100 Descending Chicago Center
06:03PM 41.4361 -86.6456 289° West 432 497 17,100 -1,860 Descending Chicago Center
06:04PM 41.4756 -86.8083 288° West 415 478 15,200 -1,680 Descending Chicago Center
06:05PM 41.5106 -86.9467 289° West 399 459 13,700 -1,440 Descending Chicago Center
06:06PM 41.5425 -87.0839 287° West 392 451 12,300 -900 Descending Chicago Center
06:07PM 41.5833 -87.2333 290° West 383 441 12,000 -180 Descending Chicago TRACON
06:08PM 41.6500 -87.3500 307° West 388 447 12,000 -300 Level Chicago TRACON
06:09PM 41.7167 -87.4500 312° West 385 443 11,400 -840 Descending Chicago TRACON
06:10PM 41.7667 -87.5500 304° West 363 418 10,400 -1,080 Descending Chicago TRACON
06:10PM 41.7831 -87.5706 317° Northwest 371 427 10,200 -1,440 Descending Chicago Center
06:11PM 41.8167 -87.6500 300° West 314 361 9,000 -1,560 Descending Chicago TRACON
06:12PM 41.8167 -87.7667 270° West 286 329 7,400 -1,260 Descending Chicago TRACON
06:13PM 41.8167 -87.8667 270° West 257 296 6,400 -1,200 Descending Chicago TRACON
06:14PM 41.8000 -87.9500 255° West 246 283 5,100 -1,320 Descending Chicago TRACON
06:14PM 41.7844 -87.9722 227° Southwest 250 288 4,800 -960 Descending Chicago Center
06:15PM 41.7767 -88.0433 262° West 237 273 3,900 -480 Descending Chicago Center
06:16PM 41.8244 -88.0453 358° North 208 239 3,900 -480 Level Chicago Center
06:17PM 41.8653 -88.0047 36° Northeast 192 221 3,000 -1,140 Descending Chicago Center
06:18PM 41.9000 -87.9667 39° Northeast 171 197 2,200 -1,500 Descending Chicago TRACON